createdAt,value
2022-10-30T00:00:33.402Z,6.60
2022-10-30T00:03:01.045Z,6.95
2022-10-30T00:05:31.825Z,6.03
2022-10-30T00:07:59.719Z,5.22
2022-10-30T00:10:27.016Z,7.85
2022-10-30T00:12:54.144Z,5.22
2022-10-30T00:15:21.173Z,6.45
2022-10-30T00:17:48.203Z,7.43
2022-10-30T00:20:15.295Z,4.57
2022-10-30T00:22:42.290Z,9.10
2022-10-30T00:25:09.551Z,5.55
2022-10-30T00:27:36.573Z,6.68
2022-10-30T00:30:03.912Z,9.00
2022-10-30T00:32:31.145Z,6.70
2022-10-30T00:34:58.159Z,7.80
2022-10-30T00:37:25.192Z,5.60
2022-10-30T00:39:52.230Z,6.45
2022-10-30T00:42:19.926Z,8.02
2022-10-30T00:44:52.790Z,8.43
2022-10-30T00:47:21.219Z,5.93
2022-10-30T00:49:50.922Z,8.10
2022-10-30T00:52:19.254Z,6.78
2022-10-30T00:54:46.378Z,5.97
2022-10-30T00:57:14.043Z,7.38
2022-10-30T00:59:41.159Z,4.63
2022-10-30T01:02:09.223Z,8.43
2022-10-30T01:04:39.462Z,8.35
2022-10-30T01:07:15.897Z,6.57
2022-10-30T01:10:01.518Z,5.68
2022-10-30T01:12:29.563Z,7.45
2022-10-30T01:14:59.300Z,7.95
2022-10-30T01:17:36.274Z,8.07
2022-10-30T01:20:10.220Z,8.13
2022-10-30T01:22:47.591Z,7.35
2022-10-30T01:25:56.012Z,8.70
2022-10-30T01:28:42.226Z,6.00
2022-10-30T01:31:24.433Z,7.00
2022-10-30T01:34:11.033Z,5.30
2022-10-30T01:37:01.981Z,7.00
2022-10-30T01:39:35.578Z,6.97
2022-10-30T01:42:47.660Z,4.68
2022-10-30T01:45:37.491Z,6.05
2022-10-30T01:48:27.994Z,5.43
2022-10-30T01:51:04.140Z,4.53
2022-10-30T01:53:49.141Z,3.53
2022-10-30T01:56:59.552Z,5.55
2022-10-30T02:00:05.474Z,6.15
2022-10-30T02:02:40.864Z,5.55
2022-10-30T02:05:17.014Z,10.05
2022-10-30T02:07:44.078Z,8.88
2022-10-30T02:10:12.940Z,6.85
2022-10-30T02:12:40.740Z,6.10
2022-10-30T02:15:11.652Z,4.10
2022-10-30T02:17:40.684Z,7.90
2022-10-30T02:20:08.729Z,4.60
2022-10-30T02:22:35.830Z,5.65
2022-10-30T02:25:02.932Z,3.08
2022-10-30T02:27:30.240Z,3.30
2022-10-30T02:29:57.285Z,7.85
2022-10-30T02:32:24.336Z,6.88
2022-10-30T02:34:51.520Z,5.57
2022-10-30T02:37:18.619Z,6.50
2022-10-30T02:39:45.651Z,4.13
2022-10-30T02:42:12.750Z,5.20
2022-10-30T02:44:39.834Z,3.60
2022-10-30T02:47:07.126Z,2.22
2022-10-30T02:49:34.209Z,1.95
2022-10-30T02:52:01.665Z,3.28
2022-10-30T02:54:29.002Z,4.70
2022-10-30T02:56:56.370Z,1.75
2022-10-30T02:59:23.474Z,2.08
2022-10-30T03:01:51.516Z,6.55
2022-10-30T03:04:19.594Z,3.30
2022-10-30T03:06:46.665Z,3.22
2022-10-30T03:09:13.695Z,0.70
2022-10-30T03:11:40.853Z,3.85
2022-10-30T03:14:08.254Z,3.80
2022-10-30T03:16:36.866Z,2.45
2022-10-30T03:19:04.404Z,4.03
2022-10-30T03:21:33.349Z,2.42
2022-10-30T03:24:00.418Z,3.83
2022-10-30T03:26:27.479Z,5.05
2022-10-30T03:29:00.681Z,4.13
2022-10-30T03:31:27.946Z,9.90
2022-10-30T03:34:21.090Z,5.20
2022-10-30T03:36:48.303Z,5.30
2022-10-30T03:39:15.603Z,3.35
2022-10-30T03:41:44.586Z,4.45
2022-10-30T03:44:12.779Z,1.85
2022-10-30T03:46:39.805Z,3.90
2022-10-30T03:49:28.899Z,3.28
2022-10-30T03:51:57.139Z,0.93
2022-10-30T03:54:26.104Z,2.53
2022-10-30T03:56:53.301Z,1.90
2022-10-30T03:59:22.212Z,3.67
2022-10-30T04:02:24.644Z,3.08
2022-10-30T04:04:51.758Z,7.15
2022-10-30T04:07:18.840Z,1.60
2022-10-30T04:09:46.005Z,0.80
2022-10-30T04:12:13.067Z,2.17
2022-10-30T04:14:40.293Z,1.02
2022-10-30T04:17:07.392Z,3.58
2022-10-30T04:19:34.504Z,2.42
2022-10-30T04:22:01.574Z,0.77
2022-10-30T04:24:28.650Z,4.53
2022-10-30T04:26:56.890Z,1.67
2022-10-30T04:29:23.919Z,2.17
2022-10-30T04:31:51.025Z,2.08
2022-10-30T04:34:18.334Z,2.03
2022-10-30T04:36:45.464Z,0.80
2022-10-30T04:39:12.627Z,4.78
2022-10-30T04:41:40.193Z,2.50
2022-10-30T04:44:14.508Z,3.00
2022-10-30T04:46:41.557Z,1.85
2022-10-30T04:49:10.521Z,3.17
2022-10-30T04:51:37.521Z,2.25
2022-10-30T04:54:06.520Z,1.63
2022-10-30T04:56:37.462Z,3.05
2022-10-30T04:59:04.779Z,2.25
2022-10-30T05:01:32.435Z,1.55
2022-10-30T05:04:00.486Z,3.70
2022-10-30T05:06:31.097Z,2.50
2022-10-30T05:08:59.235Z,2.95
2022-10-30T05:11:34.247Z,1.52
2022-10-30T05:14:01.391Z,2.85
2022-10-30T05:16:28.579Z,1.38
2022-10-30T05:18:57.742Z,1.23
2022-10-30T05:21:25.062Z,4.80
2022-10-30T05:23:54.202Z,1.25
2022-10-30T05:26:23.210Z,1.95
2022-10-30T05:28:51.665Z,2.58
2022-10-30T05:31:19.289Z,4.47
2022-10-30T05:34:07.332Z,2.63
2022-10-30T05:36:35.968Z,3.85
2022-10-30T05:39:04.114Z,1.80
2022-10-30T05:41:35.258Z,2.80
2022-10-30T05:44:03.615Z,2.20
2022-10-30T05:46:31.603Z,3.47
2022-10-30T05:49:08.764Z,1.40
2022-10-30T05:51:38.106Z,1.23
2022-10-30T05:54:09.634Z,5.07
2022-10-30T05:56:41.051Z,1.00
2022-10-30T05:59:08.155Z,2.78
2022-10-30T06:01:35.348Z,0.85
2022-10-30T06:04:11.464Z,1.70
2022-10-30T06:06:38.548Z,1.13
2022-10-30T06:09:05.544Z,0.82
2022-10-30T06:11:43.659Z,1.23
2022-10-30T06:14:11.707Z,0.75
2022-10-30T06:16:50.579Z,0.70
2022-10-30T06:19:18.810Z,3.22
2022-10-30T06:21:48.625Z,0.80
2022-10-30T06:24:24.911Z,0.35
2022-10-30T06:27:09.426Z,1.20
2022-10-30T06:29:36.441Z,0.32
2022-10-30T06:32:06.533Z,1.27
2022-10-30T06:34:34.375Z,0.80
2022-10-30T06:37:01.720Z,1.95
2022-10-30T06:39:28.863Z,0.73
2022-10-30T06:42:22.015Z,1.50
2022-10-30T06:45:20.195Z,0.25
2022-10-30T06:47:48.016Z,0.10
2022-10-30T06:50:18.229Z,0.20
2022-10-30T06:52:45.695Z,1.35
2022-10-30T06:55:13.915Z,0.22
2022-10-30T06:57:54.932Z,0.65
2022-10-30T07:01:01.215Z,1.17
2022-10-30T07:03:47.119Z,0.20
2022-10-30T07:06:14.232Z,2.78
2022-10-30T07:08:42.024Z,1.08
2022-10-30T07:11:10.240Z,0.32
2022-10-30T07:13:44.949Z,0.20
2022-10-30T07:16:27.984Z,0.40
2022-10-30T07:18:59.269Z,0.30
2022-10-30T07:21:29.248Z,0.50
2022-10-30T07:23:56.425Z,0.30
2022-10-30T07:26:49.596Z,4.90
2022-10-30T07:29:34.468Z,1.58
2022-10-30T07:32:16.395Z,0.73
2022-10-30T07:35:07.575Z,0.50
2022-10-30T07:37:54.927Z,0.40
2022-10-30T07:40:32.290Z,0.30
2022-10-30T07:43:07.596Z,1.55
2022-10-30T07:45:56.841Z,2.55
2022-10-30T07:48:56.823Z,2.15
2022-10-30T07:51:41.312Z,0.68
2022-10-30T07:54:08.839Z,0.60
2022-10-30T07:56:36.568Z,1.08
2022-10-30T07:59:26.775Z,0.50
2022-10-30T08:02:16.789Z,1.90
2022-10-30T08:05:05.629Z,3.33
2022-10-30T08:07:50.191Z,0.20
2022-10-30T08:10:17.324Z,5.25
2022-10-30T08:12:45.905Z,0.43
2022-10-30T08:15:13.336Z,1.15
2022-10-30T08:17:46.001Z,0.73
2022-10-30T08:20:15.438Z,0.32
2022-10-30T08:22:58.064Z,1.35
2022-10-30T08:25:28.751Z,2.08
2022-10-30T08:28:06.379Z,6.20
2022-10-30T08:30:37.586Z,0.77
2022-10-30T08:33:10.011Z,2.83
2022-10-30T08:36:09.586Z,0.60
2022-10-30T08:38:36.627Z,0.30
2022-10-30T08:41:21.710Z,0.47
2022-10-30T08:43:51.867Z,1.42
2022-10-30T08:46:19.044Z,0.50
2022-10-30T08:48:46.883Z,0.55
2022-10-30T08:51:14.189Z,0.28
2022-10-30T08:53:44.619Z,0.40
2022-10-30T08:56:14.535Z,0.30
2022-10-30T08:58:57.556Z,1.88
2022-10-30T09:01:24.710Z,3.42
2022-10-30T09:04:10.601Z,0.85
2022-10-30T09:06:57.565Z,3.50
2022-10-30T09:09:51.940Z,0.82
2022-10-30T09:12:19.122Z,0.57
2022-10-30T09:14:47.429Z,2.63
2022-10-30T09:17:14.525Z,1.33
2022-10-30T09:19:45.009Z,3.10
2022-10-30T09:22:17.002Z,6.13
2022-10-30T09:24:44.467Z,0.30
2022-10-30T09:27:40.601Z,9.30
2022-10-30T09:30:10.991Z,8.70
2022-10-30T09:32:48.914Z,0.60
2022-10-30T09:35:21.497Z,0.43
2022-10-30T09:37:49.846Z,0.17
2022-10-30T09:40:31.775Z,2.15
2022-10-30T09:43:24.850Z,0.55
2022-10-30T09:46:14.661Z,0.75
2022-10-30T09:48:57.518Z,0.55
2022-10-30T09:51:49.320Z,4.85
2022-10-30T09:55:03.703Z,0.10
2022-10-30T09:57:45.283Z,1.55
2022-10-30T10:00:23.280Z,1.13
2022-10-30T10:03:16.896Z,0.30
2022-10-30T10:06:05.506Z,0.68
2022-10-30T10:08:57.433Z,5.35
2022-10-30T10:11:49.636Z,1.42
2022-10-30T10:14:23.317Z,1.38
2022-10-30T10:16:55.451Z,3.55
2022-10-30T10:19:30.273Z,2.25
2022-10-30T10:22:03.370Z,0.52
2022-10-30T10:24:36.091Z,0.50
2022-10-30T10:27:27.249Z,0.65
2022-10-30T10:30:03.646Z,1.83
2022-10-30T10:32:57.915Z,1.90
2022-10-30T10:35:25.109Z,1.20
2022-10-30T10:38:05.901Z,3.25
2022-10-30T10:40:58.521Z,2.83
2022-10-30T10:43:37.974Z,3.33
2022-10-30T10:46:20.291Z,0.35
2022-10-30T10:49:00.606Z,0.40
2022-10-30T10:51:31.150Z,1.10
2022-10-30T10:54:02.510Z,2.13
2022-10-30T10:56:36.458Z,0.85
2022-10-30T10:59:09.052Z,1.35
2022-10-30T11:01:38.473Z,0.25
2022-10-30T11:04:15.741Z,1.02
2022-10-30T11:06:49.343Z,3.30
2022-10-30T11:09:22.196Z,0.45
2022-10-30T11:11:51.551Z,6.18
2022-10-30T11:14:24.811Z,0.50
2022-10-30T11:16:59.906Z,2.08
2022-10-30T11:19:30.136Z,2.58
2022-10-30T11:21:58.703Z,0.73
2022-10-30T11:24:36.514Z,1.33
2022-10-30T11:27:28.694Z,0.80
2022-10-30T11:30:02.027Z,1.27
2022-10-30T11:32:34.735Z,1.80
2022-10-30T11:35:11.283Z,0.65
2022-10-30T11:37:40.899Z,0.75
2022-10-30T11:40:23.729Z,2.55
2022-10-30T11:42:58.092Z,5.40
2022-10-30T11:45:34.480Z,1.42
2022-10-30T11:48:03.044Z,0.20
2022-10-30T11:50:32.618Z,1.67
2022-10-30T11:53:13.279Z,0.80
2022-10-30T11:55:50.935Z,1.63
2022-10-30T11:58:24.170Z,2.17
2022-10-30T12:01:13.866Z,1.85
2022-10-30T12:03:42.357Z,1.67
2022-10-30T12:06:16.959Z,3.45
2022-10-30T12:09:11.780Z,0.60
2022-10-30T12:11:43.336Z,1.00
2022-10-30T12:14:26.821Z,0.60
2022-10-30T12:16:57.099Z,0.30
2022-10-30T12:19:25.738Z,1.10
2022-10-30T12:21:58.522Z,0.93
2022-10-30T12:24:38.788Z,1.80
2022-10-30T12:27:21.396Z,1.17
2022-10-30T12:30:09.188Z,0.45
2022-10-30T12:32:43.718Z,0.30
2022-10-30T12:35:31.969Z,0.47
2022-10-30T12:38:01.762Z,0.75
2022-10-30T12:40:40.948Z,1.58
2022-10-30T12:43:26.333Z,0.40
2022-10-30T12:46:06.908Z,0.80
2022-10-30T12:48:48.978Z,1.67
2022-10-30T12:51:45.254Z,0.95
2022-10-30T12:54:37.104Z,0.35
2022-10-30T12:57:19.574Z,0.47
2022-10-30T13:00:15.715Z,2.45
2022-10-30T13:02:46.401Z,1.52
2022-10-30T13:05:31.822Z,0.43
2022-10-30T13:08:20.484Z,1.05
2022-10-30T13:10:53.308Z,3.10
2022-10-30T13:13:25.884Z,0.32
2022-10-30T13:15:58.669Z,1.60
2022-10-30T13:18:27.478Z,2.35
2022-10-30T13:20:57.692Z,1.50
2022-10-30T13:23:40.487Z,1.50
2022-10-30T13:26:42.880Z,1.27
2022-10-30T13:29:22.055Z,3.13
2022-10-30T13:32:04.872Z,9.40
2022-10-30T13:35:04.279Z,2.42
2022-10-30T13:37:46.635Z,1.90
2022-10-30T13:40:17.988Z,8.93
2022-10-30T13:43:05.225Z,0.57
2022-10-30T13:45:49.247Z,1.55
2022-10-30T13:48:50.077Z,1.70
2022-10-30T13:51:35.848Z,0.98
2022-10-30T13:54:14.762Z,0.98
2022-10-30T13:56:45.644Z,6.82
2022-10-30T14:02:10.424Z,1.80
2022-10-30T14:04:45.583Z,1.75
2022-10-30T14:07:26.631Z,1.92
2022-10-30T14:12:56.444Z,8.43
2022-10-30T14:15:30.652Z,2.65
2022-10-30T14:18:13.049Z,1.27
2022-10-30T14:20:46.996Z,2.40
2022-10-30T14:23:20.373Z,2.17
2022-10-30T14:26:03.073Z,1.00
2022-10-30T14:28:32.232Z,1.48
2022-10-30T14:31:36.563Z,2.38
2022-10-30T14:34:04.235Z,0.55
2022-10-30T14:36:34.479Z,1.70
2022-10-30T14:39:21.354Z,2.00
2022-10-30T14:42:13.175Z,0.98
2022-10-30T14:44:49.182Z,0.60
2022-10-30T14:47:46.459Z,0.63
2022-10-30T14:50:42.727Z,1.15
2022-10-30T14:53:34.376Z,0.65
2022-10-30T14:59:15.475Z,0.57
2022-10-30T15:01:55.236Z,0.90
2022-10-30T15:04:39.543Z,0.63
2022-10-30T15:07:38.444Z,1.23
2022-10-30T15:10:33.193Z,0.25
2022-10-30T15:13:23.135Z,1.17
2022-10-30T15:16:03.481Z,1.90
2022-10-30T15:18:31.257Z,3.65
2022-10-30T15:21:05.099Z,1.70
2022-10-30T15:23:37.594Z,3.20
2022-10-30T15:26:10.192Z,2.25
2022-10-30T15:28:38.941Z,6.13
2022-10-30T15:31:07.844Z,4.00
2022-10-30T15:33:38.304Z,2.85
2022-10-30T15:36:16.740Z,1.88
2022-10-30T15:38:43.841Z,7.38
2022-10-30T15:41:12.075Z,3.72
2022-10-30T15:43:43.042Z,4.32
2022-10-30T15:46:12.559Z,2.13
2022-10-30T15:48:45.613Z,1.42
2022-10-30T15:51:16.985Z,2.50
2022-10-30T15:53:48.113Z,0.88
2022-10-30T15:56:44.527Z,0.98
2022-10-30T15:59:27.705Z,0.63
2022-10-30T16:01:56.818Z,5.68
2022-10-30T16:04:32.246Z,1.10
2022-10-30T16:07:01.475Z,4.47
2022-10-30T16:09:29.010Z,1.75
2022-10-30T16:11:59.458Z,0.90
2022-10-30T16:14:29.945Z,2.22
2022-10-30T16:17:01.719Z,4.32
2022-10-30T16:19:44.378Z,6.82
2022-10-30T16:22:16.594Z,0.88
2022-10-30T16:24:43.884Z,1.75
2022-10-30T16:27:18.365Z,0.70
2022-10-30T16:29:47.177Z,0.80
2022-10-30T16:32:17.793Z,1.45
2022-10-30T16:34:46.780Z,1.20
2022-10-30T16:37:27.866Z,2.65
2022-10-30T16:39:56.349Z,6.43
2022-10-30T16:42:28.393Z,1.42
2022-10-30T16:45:10.856Z,0.40
2022-10-30T16:47:52.245Z,0.43
2022-10-30T16:50:20.855Z,1.30
2022-10-30T16:52:49.708Z,1.25
2022-10-30T16:55:22.676Z,1.48
2022-10-30T16:57:58.502Z,0.65
2022-10-30T17:00:31.553Z,1.58
2022-10-30T17:03:08.307Z,3.75
2022-10-30T17:05:37.100Z,0.60
2022-10-30T17:08:18.255Z,3.85
2022-10-30T17:13:33.542Z,1.45
2022-10-30T17:16:25.474Z,0.60
2022-10-30T17:18:55.036Z,2.65
2022-10-30T17:21:42.494Z,1.45
2022-10-30T17:24:22.158Z,2.47
2022-10-30T17:26:57.651Z,0.55
2022-10-30T17:29:36.648Z,1.10
2022-10-30T17:32:16.590Z,2.38
2022-10-30T17:34:44.232Z,0.50
2022-10-30T17:37:11.297Z,0.80
2022-10-30T17:39:38.376Z,1.92
2022-10-30T17:42:05.596Z,1.17
2022-10-30T17:44:35.494Z,0.75
2022-10-30T17:47:17.648Z,0.43
2022-10-30T17:49:45.905Z,2.65
2022-10-30T17:52:19.636Z,0.52
2022-10-30T17:54:46.675Z,0.30
2022-10-30T17:57:15.232Z,0.57
2022-10-30T17:59:43.260Z,1.08
2022-10-30T18:02:18.509Z,1.77
2022-10-30T18:04:48.980Z,0.70
2022-10-30T18:07:17.501Z,0.35
2022-10-30T18:09:45.261Z,0.90
2022-10-30T18:12:20.209Z,0.50
2022-10-30T18:14:47.298Z,0.75
2022-10-30T18:17:14.333Z,1.60
2022-10-30T18:19:41.396Z,0.10
2022-10-30T18:22:10.109Z,0.55
2022-10-30T18:24:38.365Z,0.40
2022-10-30T18:27:05.416Z,0.60
2022-10-30T18:29:32.483Z,0.63
2022-10-30T18:31:59.560Z,0.82
2022-10-30T18:34:26.654Z,1.02
2022-10-30T18:36:53.737Z,0.75
2022-10-30T18:39:20.760Z,4.80
2022-10-30T18:41:49.140Z,1.77
2022-10-30T18:44:18.619Z,0.77
2022-10-30T18:46:46.059Z,1.65
2022-10-30T18:49:13.211Z,1.20
2022-10-30T18:51:40.646Z,0.93
2022-10-30T18:54:16.941Z,0.65
2022-10-30T18:56:47.426Z,0.40
2022-10-30T18:59:14.506Z,3.92
2022-10-30T19:01:41.831Z,2.60
2022-10-30T19:04:10.562Z,0.52
2022-10-30T19:06:38.893Z,0.63
2022-10-30T19:09:37.065Z,1.92
2022-10-30T19:11:58.318Z,1.08
2022-10-30T19:14:26.571Z,1.17
2022-10-30T19:16:53.708Z,1.98
2022-10-30T19:19:21.062Z,0.38
2022-10-30T19:21:48.159Z,0.73
2022-10-30T19:24:17.810Z,1.15
2022-10-30T19:26:44.864Z,3.60
2022-10-30T19:29:14.862Z,0.52
2022-10-30T19:31:42.172Z,0.45
2022-10-30T19:34:09.215Z,0.10
2022-10-30T19:36:38.586Z,0.73
2022-10-30T19:39:14.190Z,0.63
2022-10-30T19:41:41.451Z,1.70
2022-10-30T19:44:10.103Z,1.55
2022-10-30T19:46:37.368Z,1.15
2022-10-30T19:49:18.478Z,1.08
2022-10-30T19:54:13.844Z,1.00
2022-10-30T19:56:43.139Z,1.13
2022-10-30T19:59:13.178Z,1.63
2022-10-30T20:01:41.748Z,2.37
2022-10-30T20:04:09.204Z,0.68
2022-10-30T20:06:40.821Z,0.30
2022-10-30T20:09:12.691Z,0.20
2022-10-30T20:11:40.024Z,1.00
2022-10-30T20:14:07.064Z,0.52
2022-10-30T20:16:36.702Z,0.15
2022-10-30T20:19:36.559Z,0.93
2022-10-30T20:22:03.602Z,2.65
2022-10-30T20:24:33.245Z,0.30
2022-10-30T20:27:00.876Z,0.95
2022-10-30T20:29:28.196Z,0.52
2022-10-30T20:31:55.333Z,0.47
2022-10-30T20:34:22.368Z,0.40
2022-10-30T20:36:49.639Z,0.43
2022-10-30T20:39:16.700Z,1.52
2022-10-30T20:41:43.812Z,0.80
2022-10-30T20:44:14.775Z,0.20
2022-10-30T20:49:17.259Z,0.40
2022-10-30T20:51:45.452Z,0.22
2022-10-30T20:54:12.500Z,2.90
2022-10-30T20:56:39.914Z,1.58
2022-10-30T20:59:06.997Z,0.63
2022-10-30T21:01:34.438Z,0.10
2022-10-30T21:04:04.869Z,0.20
2022-10-30T21:06:31.995Z,0.43
2022-10-30T21:08:59.644Z,1.02
2022-10-30T21:11:27.202Z,0.75
2022-10-30T21:13:56.806Z,0.55
2022-10-30T21:16:24.041Z,0.35
2022-10-30T21:18:55.953Z,0.22
2022-10-30T21:21:25.909Z,0.22
2022-10-30T21:23:56.356Z,0.45
2022-10-30T21:26:24.749Z,0.30
2022-10-30T21:28:52.292Z,0.20
2022-10-30T21:31:19.416Z,1.45
2022-10-30T21:33:47.275Z,1.08
2022-10-30T21:36:16.972Z,1.92
2022-10-30T21:38:44.756Z,0.20
2022-10-30T21:41:15.029Z,0.75
2022-10-30T21:43:42.586Z,0.43
2022-10-30T21:46:12.355Z,0.60
2022-10-30T21:48:40.011Z,1.42
2022-10-30T21:51:17.091Z,0.80
2022-10-30T21:53:45.565Z,0.73
2022-10-30T21:56:18.897Z,1.30
2022-10-30T21:58:46.854Z,0.25
2022-10-30T22:01:21.278Z,0.20
2022-10-30T22:03:48.911Z,0.50
2022-10-30T22:06:18.368Z,0.13
2022-10-30T22:08:47.259Z,0.30
2022-10-30T22:11:14.599Z,1.35
2022-10-30T22:13:42.412Z,0.10
2022-10-30T22:16:12.395Z,0.47
2022-10-30T22:18:39.780Z,1.02
2022-10-30T22:21:08.916Z,1.05
2022-10-30T22:23:37.619Z,0.57
2022-10-30T22:26:06.862Z,1.67
2022-10-30T22:28:34.699Z,0.68
2022-10-30T22:31:21.557Z,0.80
2022-10-30T22:33:48.862Z,0.40
2022-10-30T22:36:21.196Z,0.63
2022-10-30T22:38:53.511Z,1.67
2022-10-30T22:41:24.091Z,1.38
2022-10-30T22:43:54.916Z,1.60
2022-10-30T22:46:24.077Z,0.20
2022-10-30T22:48:51.303Z,0.30
2022-10-30T22:51:20.104Z,0.20
2022-10-30T22:53:56.866Z,0.82
2022-10-30T22:56:33.773Z,0.30
2022-10-30T22:59:07.190Z,0.20
2022-10-30T23:01:36.422Z,0.65
2022-10-30T23:04:04.871Z,0.20
2022-10-30T23:09:06.506Z,2.10
2022-10-30T23:11:35.578Z,0.22
2022-10-30T23:14:02.712Z,4.47
2022-10-30T23:16:30.028Z,1.10
2022-10-30T23:18:59.128Z,0.70
2022-10-30T23:21:28.854Z,0.43
2022-10-30T23:23:56.671Z,0.90
2022-10-30T23:26:31.776Z,0.70
2022-10-30T23:29:00.333Z,0.10
2022-10-30T23:31:30.222Z,0.10
2022-10-30T23:33:59.837Z,0.10
2022-10-30T23:36:27.614Z,0.63
2022-10-30T23:39:00.091Z,1.95
2022-10-30T23:41:30.184Z,1.00
2022-10-30T23:43:59.736Z,0.63
2022-10-30T23:46:27.418Z,0.20
2022-10-30T23:48:54.904Z,2.38
2022-10-30T23:51:25.212Z,2.43
2022-10-30T23:53:54.892Z,0.80
2022-10-30T23:56:21.981Z,1.08
2022-10-30T23:58:51.266Z,3.92
